sensor_id;sensor_type;location;lat;lon;timestamp;P1;durP1;ratioP1;P2;durP2;ratioP2
69310;SDS011;56430;48.154;16.458;2024-02-23T00:00:17;2.33;;;0.50;;
69310;SDS011;56430;48.154;16.458;2024-02-23T00:06:10;2.40;;;0.40;;
69310;SDS011;56430;48.154;16.458;2024-02-23T00:08:37;2.25;;;0.60;;
69310;SDS011;56430;48.154;16.458;2024-02-23T00:11:05;2.65;;;0.60;;
69310;SDS011;56430;48.154;16.458;2024-02-23T00:13:32;2.27;;;0.50;;
69310;SDS011;56430;48.154;16.458;2024-02-23T00:16:01;2.15;;;0.40;;
69310;SDS011;56430;48.154;16.458;2024-02-23T00:18:28;3.03;;;0.50;;
69310;SDS011;56430;48.154;16.458;2024-02-23T00:20:55;2.20;;;0.45;;
69310;SDS011;56430;48.154;16.458;2024-02-23T00:23:23;2.80;;;0.52;;
69310;SDS011;56430;48.154;16.458;2024-02-23T00:25:50;2.47;;;0.77;;
69310;SDS011;56430;48.154;16.458;2024-02-23T00:28:17;2.13;;;0.50;;
69310;SDS011;56430;48.154;16.458;2024-02-23T00:30:44;2.60;;;0.50;;
69310;SDS011;56430;48.154;16.458;2024-02-23T00:33:13;5.07;;;0.80;;
69310;SDS011;56430;48.154;16.458;2024-02-23T00:35:40;3.25;;;0.50;;
69310;SDS011;56430;48.154;16.458;2024-02-23T00:38:07;2.67;;;0.50;;
69310;SDS011;56430;48.154;16.458;2024-02-23T00:40:34;3.17;;;0.70;;
69310;SDS011;56430;48.154;16.458;2024-02-23T00:43:01;2.70;;;0.70;;
69310;SDS011;56430;48.154;16.458;2024-02-23T00:45:29;4.90;;;0.85;;
69310;SDS011;56430;48.154;16.458;2024-02-23T00:47:56;2.40;;;0.50;;
69310;SDS011;56430;48.154;16.458;2024-02-23T00:50:34;2.43;;;0.70;;
69310;SDS011;56430;48.154;16.458;2024-02-23T00:53:01;2.65;;;0.40;;
69310;SDS011;56430;48.154;16.458;2024-02-23T00:55:28;2.30;;;0.50;;
69310;SDS011;56430;48.154;16.458;2024-02-23T00:57:55;2.63;;;0.98;;
69310;SDS011;56430;48.154;16.458;2024-02-23T01:00:22;3.72;;;0.50;;
69310;SDS011;56430;48.154;16.458;2024-02-23T01:02:50;2.80;;;0.60;;
69310;SDS011;56430;48.154;16.458;2024-02-23T01:05:17;2.15;;;0.45;;
69310;SDS011;56430;48.154;16.458;2024-02-23T01:07:45;3.22;;;0.60;;
69310;SDS011;56430;48.154;16.458;2024-02-23T01:10:13;2.58;;;0.60;;
69310;SDS011;56430;48.154;16.458;2024-02-23T01:12:40;2.08;;;0.60;;
69310;SDS011;56430;48.154;16.458;2024-02-23T01:15:07;2.77;;;0.70;;
69310;SDS011;56430;48.154;16.458;2024-02-23T01:17:35;3.00;;;0.77;;
69310;SDS011;56430;48.154;16.458;2024-02-23T01:20:03;2.35;;;0.60;;
69310;SDS011;56430;48.154;16.458;2024-02-23T01:22:31;1.92;;;0.43;;
69310;SDS011;56430;48.154;16.458;2024-02-23T01:25:00;2.40;;;0.52;;
69310;SDS011;56430;48.154;16.458;2024-02-23T01:27:27;3.10;;;0.70;;
69310;SDS011;56430;48.154;16.458;2024-02-23T01:29:54;2.88;;;1.00;;
69310;SDS011;56430;48.154;16.458;2024-02-23T01:32:21;2.13;;;0.63;;
69310;SDS011;56430;48.154;16.458;2024-02-23T01:34:48;3.25;;;0.52;;
69310;SDS011;56430;48.154;16.458;2024-02-23T01:37:15;4.03;;;1.00;;
69310;SDS011;56430;48.154;16.458;2024-02-23T01:39:43;5.77;;;1.00;;
69310;SDS011;56430;48.154;16.458;2024-02-23T01:42:11;2.28;;;0.73;;
69310;SDS011;56430;48.154;16.458;2024-02-23T01:44:39;3.90;;;0.90;;
69310;SDS011;56430;48.154;16.458;2024-02-23T01:47:06;4.80;;;0.70;;
69310;SDS011;56430;48.154;16.458;2024-02-23T01:49:33;3.28;;;0.77;;
69310;SDS011;56430;48.154;16.458;2024-02-23T01:52:01;3.00;;;0.70;;
69310;SDS011;56430;48.154;16.458;2024-02-23T01:54:28;3.25;;;0.90;;
69310;SDS011;56430;48.154;16.458;2024-02-23T01:56:56;2.65;;;0.77;;
69310;SDS011;56430;48.154;16.458;2024-02-23T01:59:25;2.67;;;0.90;;
69310;SDS011;56430;48.154;16.458;2024-02-23T02:01:51;2.47;;;0.63;;
69310;SDS011;56430;48.154;16.458;2024-02-23T02:04:18;3.00;;;0.80;;
69310;SDS011;56430;48.154;16.458;2024-02-23T02:06:46;2.35;;;0.60;;
69310;SDS011;56430;48.154;16.458;2024-02-23T02:09:13;3.03;;;0.60;;
69310;SDS011;56430;48.154;16.458;2024-02-23T02:11:44;2.55;;;0.80;;
69310;SDS011;56430;48.154;16.458;2024-02-23T02:14:12;3.47;;;0.88;;
69310;SDS011;56430;48.154;16.458;2024-02-23T02:16:41;2.60;;;0.60;;
69310;SDS011;56430;48.154;16.458;2024-02-23T02:19:09;4.28;;;1.27;;
69310;SDS011;56430;48.154;16.458;2024-02-23T02:21:36;3.30;;;0.73;;
69310;SDS011;56430;48.154;16.458;2024-02-23T02:24:04;3.30;;;0.88;;
69310;SDS011;56430;48.154;16.458;2024-02-23T02:26:31;3.97;;;1.02;;
69310;SDS011;56430;48.154;16.458;2024-02-23T02:28:58;3.07;;;0.80;;
69310;SDS011;56430;48.154;16.458;2024-02-23T02:31:26;4.97;;;0.80;;
69310;SDS011;56430;48.154;16.458;2024-02-23T02:33:54;5.25;;;1.08;;
69310;SDS011;56430;48.154;16.458;2024-02-23T02:36:21;4.15;;;1.00;;
69310;SDS011;56430;48.154;16.458;2024-02-23T02:38:48;3.20;;;0.80;;
69310;SDS011;56430;48.154;16.458;2024-02-23T02:41:16;4.77;;;0.93;;
69310;SDS011;56430;48.154;16.458;2024-02-23T02:43:44;3.05;;;0.90;;
69310;SDS011;56430;48.154;16.458;2024-02-23T02:46:11;3.03;;;0.90;;
69310;SDS011;56430;48.154;16.458;2024-02-23T02:48:38;3.10;;;0.70;;
69310;SDS011;56430;48.154;16.458;2024-02-23T02:51:06;3.35;;;0.90;;
69310;SDS011;56430;48.154;16.458;2024-02-23T02:53:34;4.23;;;1.00;;
69310;SDS011;56430;48.154;16.458;2024-02-23T02:56:01;3.33;;;0.90;;
69310;SDS011;56430;48.154;16.458;2024-02-23T02:58:28;3.03;;;0.80;;
69310;SDS011;56430;48.154;16.458;2024-02-23T03:00:55;2.65;;;1.00;;
69310;SDS011;56430;48.154;16.458;2024-02-23T03:03:22;5.25;;;1.23;;
69310;SDS011;56430;48.154;16.458;2024-02-23T03:05:49;3.53;;;1.50;;
69310;SDS011;56430;48.154;16.458;2024-02-23T03:08:18;4.50;;;1.70;;
69310;SDS011;56430;48.154;16.458;2024-02-23T03:10:45;4.95;;;1.80;;
69310;SDS011;56430;48.154;16.458;2024-02-23T03:13:12;4.70;;;2.00;;
69310;SDS011;56430;48.154;16.458;2024-02-23T03:15:39;4.70;;;2.08;;
69310;SDS011;56430;48.154;16.458;2024-02-23T03:18:06;5.77;;;2.27;;
69310;SDS011;56430;48.154;16.458;2024-02-23T03:20:35;4.72;;;1.70;;
69310;SDS011;56430;48.154;16.458;2024-02-23T03:23:02;4.90;;;2.10;;
69310;SDS011;56430;48.154;16.458;2024-02-23T03:25:30;4.32;;;2.05;;
69310;SDS011;56430;48.154;16.458;2024-02-23T03:27:57;6.07;;;2.13;;
69310;SDS011;56430;48.154;16.458;2024-02-23T03:30:24;7.57;;;2.73;;
69310;SDS011;56430;48.154;16.458;2024-02-23T03:32:52;4.53;;;2.05;;
69310;SDS011;56430;48.154;16.458;2024-02-23T03:35:19;5.13;;;2.35;;
69310;SDS011;56430;48.154;16.458;2024-02-23T03:37:46;4.53;;;2.42;;
69310;SDS011;56430;48.154;16.458;2024-02-23T03:40:13;8.18;;;2.47;;
69310;SDS011;56430;48.154;16.458;2024-02-23T03:42:42;4.70;;;2.20;;
69310;SDS011;56430;48.154;16.458;2024-02-23T03:45:09;5.40;;;2.50;;
69310;SDS011;56430;48.154;16.458;2024-02-23T03:47:36;6.75;;;2.60;;
69310;SDS011;56430;48.154;16.458;2024-02-23T03:50:03;5.53;;;2.40;;
69310;SDS011;56430;48.154;16.458;2024-02-23T03:52:31;6.55;;;2.80;;
69310;SDS011;56430;48.154;16.458;2024-02-23T03:54:58;6.60;;;2.80;;
69310;SDS011;56430;48.154;16.458;2024-02-23T03:57:25;9.75;;;3.20;;
69310;SDS011;56430;48.154;16.458;2024-02-23T03:59:54;8.27;;;2.83;;
69310;SDS011;56430;48.154;16.458;2024-02-23T04:02:22;8.77;;;3.05;;
69310;SDS011;56430;48.154;16.458;2024-02-23T04:04:49;7.95;;;3.05;;
69310;SDS011;56430;48.154;16.458;2024-02-23T04:07:16;6.30;;;2.90;;
69310;SDS011;56430;48.154;16.458;2024-02-23T04:09:43;6.53;;;2.97;;
69310;SDS011;56430;48.154;16.458;2024-02-23T04:12:10;6.55;;;2.85;;
69310;SDS011;56430;48.154;16.458;2024-02-23T04:14:38;4.90;;;2.30;;
69310;SDS011;56430;48.154;16.458;2024-02-23T04:17:07;7.30;;;2.92;;
69310;SDS011;56430;48.154;16.458;2024-02-23T04:19:35;6.80;;;2.67;;
69310;SDS011;56430;48.154;16.458;2024-02-23T04:22:02;5.32;;;2.53;;
69310;SDS011;56430;48.154;16.458;2024-02-23T04:24:29;7.43;;;3.20;;
69310;SDS011;56430;48.154;16.458;2024-02-23T04:26:56;6.65;;;3.30;;
69310;SDS011;56430;48.154;16.458;2024-02-23T04:29:23;7.13;;;3.25;;
69310;SDS011;56430;48.154;16.458;2024-02-23T04:31:51;7.90;;;2.97;;
69310;SDS011;56430;48.154;16.458;2024-02-23T04:34:19;6.05;;;2.72;;
69310;SDS011;56430;48.154;16.458;2024-02-23T04:36:46;7.00;;;2.60;;
69310;SDS011;56430;48.154;16.458;2024-02-23T04:39:13;5.88;;;2.10;;
69310;SDS011;56430;48.154;16.458;2024-02-23T04:41:40;6.22;;;2.05;;
69310;SDS011;56430;48.154;16.458;2024-02-23T04:44:07;4.83;;;1.60;;
69310;SDS011;56430;48.154;16.458;2024-02-23T04:46:34;4.72;;;1.50;;
69310;SDS011;56430;48.154;16.458;2024-02-23T04:49:02;3.78;;;1.23;;
69310;SDS011;56430;48.154;16.458;2024-02-23T04:51:30;4.38;;;1.13;;
69310;SDS011;56430;48.154;16.458;2024-02-23T04:53:57;2.28;;;0.70;;
69310;SDS011;56430;48.154;16.458;2024-02-23T04:56:24;2.10;;;0.60;;
69310;SDS011;56430;48.154;16.458;2024-02-23T04:58:51;1.80;;;0.50;;
69310;SDS011;56430;48.154;16.458;2024-02-23T05:01:18;2.17;;;0.40;;
69310;SDS011;56430;48.154;16.458;2024-02-23T05:03:46;2.38;;;0.30;;
69310;SDS011;56430;48.154;16.458;2024-02-23T05:06:13;1.92;;;0.50;;
69310;SDS011;56430;48.154;16.458;2024-02-23T05:08:41;1.47;;;0.23;;
69310;SDS011;56430;48.154;16.458;2024-02-23T05:11:09;2.03;;;0.40;;
69310;SDS011;56430;48.154;16.458;2024-02-23T05:13:36;1.55;;;0.17;;
69310;SDS011;56430;48.154;16.458;2024-02-23T05:16:05;1.40;;;0.30;;
69310;SDS011;56430;48.154;16.458;2024-02-23T05:18:32;1.63;;;0.30;;
69310;SDS011;56430;48.154;16.458;2024-02-23T05:21:00;1.37;;;0.20;;
69310;SDS011;56430;48.154;16.458;2024-02-23T05:23:27;1.67;;;0.30;;
69310;SDS011;56430;48.154;16.458;2024-02-23T05:25:55;1.40;;;0.10;;
69310;SDS011;56430;48.154;16.458;2024-02-23T05:28:22;1.20;;;0.10;;
69310;SDS011;56430;48.154;16.458;2024-02-23T05:30:49;1.20;;;0.13;;
69310;SDS011;56430;48.154;16.458;2024-02-23T05:33:17;1.47;;;0.20;;
69310;SDS011;56430;48.154;16.458;2024-02-23T05:35:46;1.30;;;0.10;;
69310;SDS011;56430;48.154;16.458;2024-02-23T05:38:14;1.38;;;0.15;;
69310;SDS011;56430;48.154;16.458;2024-02-23T05:40:41;1.55;;;0.20;;
69310;SDS011;56430;48.154;16.458;2024-02-23T05:43:09;1.27;;;0.25;;
69310;SDS011;56430;48.154;16.458;2024-02-23T05:45:37;1.63;;;0.20;;
69310;SDS011;56430;48.154;16.458;2024-02-23T05:48:04;1.42;;;0.25;;
69310;SDS011;56430;48.154;16.458;2024-02-23T05:50:32;1.05;;;0.10;;
69310;SDS011;56430;48.154;16.458;2024-02-23T05:52:59;1.13;;;0.10;;
69310;SDS011;56430;48.154;16.458;2024-02-23T05:55:26;1.20;;;0.10;;
69310;SDS011;56430;48.154;16.458;2024-02-23T05:57:53;1.00;;;0.10;;
69310;SDS011;56430;48.154;16.458;2024-02-23T06:00:23;1.40;;;0.10;;
69310;SDS011;56430;48.154;16.458;2024-02-23T06:02:50;1.10;;;0.10;;
69310;SDS011;56430;48.154;16.458;2024-02-23T06:05:17;0.77;;;0.10;;
69310;SDS011;56430;48.154;16.458;2024-02-23T06:07:44;1.10;;;0.10;;
69310;SDS011;56430;48.154;16.458;2024-02-23T06:10:12;1.67;;;0.10;;
69310;SDS011;56430;48.154;16.458;2024-02-23T06:12:39;1.05;;;0.10;;
69310;SDS011;56430;48.154;16.458;2024-02-23T06:15:06;0.80;;;0.08;;
69310;SDS011;56430;48.154;16.458;2024-02-23T06:17:35;0.80;;;0.10;;
69310;SDS011;56430;48.154;16.458;2024-02-23T06:20:05;0.70;;;0.00;;
69310;SDS011;56430;48.154;16.458;2024-02-23T06:22:33;0.80;;;0.10;;
69310;SDS011;56430;48.154;16.458;2024-02-23T06:25:00;1.17;;;0.10;;
69310;SDS011;56430;48.154;16.458;2024-02-23T06:27:28;1.35;;;0.20;;
69310;SDS011;56430;48.154;16.458;2024-02-23T06:29:55;0.82;;;0.03;;
69310;SDS011;56430;48.154;16.458;2024-02-23T06:32:22;0.80;;;0.10;;
69310;SDS011;56430;48.154;16.458;2024-02-23T06:34:51;1.00;;;0.00;;
69310;SDS011;56430;48.154;16.458;2024-02-23T06:37:18;0.88;;;0.00;;
69310;SDS011;56430;48.154;16.458;2024-02-23T06:39:45;1.00;;;0.00;;
69310;SDS011;56430;48.154;16.458;2024-02-23T06:42:16;0.70;;;0.08;;
69310;SDS011;56430;48.154;16.458;2024-02-23T06:44:43;0.70;;;0.00;;
69310;SDS011;56430;48.154;16.458;2024-02-23T06:47:11;0.60;;;0.00;;
69310;SDS011;56430;48.154;16.458;2024-02-23T06:49:40;0.77;;;0.00;;
69310;SDS011;56430;48.154;16.458;2024-02-23T06:52:09;1.70;;;0.10;;
69310;SDS011;56430;48.154;16.458;2024-02-23T06:54:37;1.20;;;0.00;;
69310;SDS011;56430;48.154;16.458;2024-02-23T06:57:04;0.50;;;0.00;;
69310;SDS011;56430;48.154;16.458;2024-02-23T06:59:31;0.80;;;0.10;;
69310;SDS011;56430;48.154;16.458;2024-02-23T07:01:58;0.70;;;0.00;;
69310;SDS011;56430;48.154;16.458;2024-02-23T07:04:26;1.10;;;0.00;;
69310;SDS011;56430;48.154;16.458;2024-02-23T07:06:54;0.70;;;0.10;;
69310;SDS011;56430;48.154;16.458;2024-02-23T07:09:23;1.20;;;0.10;;
69310;SDS011;56430;48.154;16.458;2024-02-23T07:11:50;1.10;;;0.10;;
69310;SDS011;56430;48.154;16.458;2024-02-23T07:14:17;1.20;;;0.05;;
69310;SDS011;56430;48.154;16.458;2024-02-23T07:16:45;0.70;;;0.00;;
69310;SDS011;56430;48.154;16.458;2024-02-23T07:19:13;7.93;;;0.20;;
69310;SDS011;56430;48.154;16.458;2024-02-23T07:21:40;2.55;;;0.10;;
69310;SDS011;56430;48.154;16.458;2024-02-23T07:24:07;1.17;;;0.20;;
69310;SDS011;56430;48.154;16.458;2024-02-23T07:26:36;1.38;;;0.10;;
69310;SDS011;56430;48.154;16.458;2024-02-23T07:29:04;3.47;;;0.47;;
69310;SDS011;56430;48.154;16.458;2024-02-23T07:31:32;2.00;;;0.10;;
69310;SDS011;56430;48.154;16.458;2024-02-23T07:33:59;1.13;;;0.10;;
69310;SDS011;56430;48.154;16.458;2024-02-23T07:36:26;2.20;;;0.10;;
69310;SDS011;56430;48.154;16.458;2024-02-23T07:38:53;1.33;;;0.10;;
69310;SDS011;56430;48.154;16.458;2024-02-23T07:41:20;0.93;;;0.08;;
69310;SDS011;56430;48.154;16.458;2024-02-23T07:43:49;1.70;;;0.10;;
69310;SDS011;56430;48.154;16.458;2024-02-23T07:46:16;2.08;;;0.10;;
69310;SDS011;56430;48.154;16.458;2024-02-23T07:48:43;2.63;;;0.20;;
69310;SDS011;56430;48.154;16.458;2024-02-23T07:51:10;1.10;;;0.13;;
69310;SDS011;56430;48.154;16.458;2024-02-23T07:53:37;4.82;;;0.20;;
69310;SDS011;56430;48.154;16.458;2024-02-23T07:56:07;6.32;;;0.43;;
69310;SDS011;56430;48.154;16.458;2024-02-23T07:58:34;2.85;;;0.20;;
69310;SDS011;56430;48.154;16.458;2024-02-23T08:01:02;1.17;;;0.17;;
69310;SDS011;56430;48.154;16.458;2024-02-23T08:03:30;4.82;;;0.30;;
69310;SDS011;56430;48.154;16.458;2024-02-23T08:05:57;4.57;;;0.30;;
69310;SDS011;56430;48.154;16.458;2024-02-23T08:08:24;4.30;;;0.10;;
69310;SDS011;56430;48.154;16.458;2024-02-23T08:10:53;3.70;;;0.22;;
69310;SDS011;56430;48.154;16.458;2024-02-23T08:13:20;5.47;;;0.30;;
69310;SDS011;56430;48.154;16.458;2024-02-23T08:15:47;3.65;;;0.30;;
69310;SDS011;56430;48.154;16.458;2024-02-23T08:18:15;1.88;;;0.22;;
69310;SDS011;56430;48.154;16.458;2024-02-23T08:20:42;2.63;;;0.15;;
69310;SDS011;56430;48.154;16.458;2024-02-23T08:23:10;1.42;;;0.20;;
69310;SDS011;56430;48.154;16.458;2024-02-23T08:25:37;3.40;;;0.20;;
69310;SDS011;56430;48.154;16.458;2024-02-23T08:28:04;2.30;;;0.20;;
69310;SDS011;56430;48.154;16.458;2024-02-23T08:30:31;2.03;;;0.20;;
69310;SDS011;56430;48.154;16.458;2024-02-23T08:32:58;1.10;;;0.20;;
69310;SDS011;56430;48.154;16.458;2024-02-23T08:35:27;1.48;;;0.10;;
69310;SDS011;56430;48.154;16.458;2024-02-23T08:41:26;1.70;;;0.20;;
69310;SDS011;56430;48.154;16.458;2024-02-23T08:43:53;2.60;;;0.30;;
69310;SDS011;56430;48.154;16.458;2024-02-23T08:46:21;4.70;;;0.40;;
69310;SDS011;56430;48.154;16.458;2024-02-23T08:48:49;2.03;;;0.35;;
69310;SDS011;56430;48.154;16.458;2024-02-23T08:51:17;1.60;;;0.10;;
69310;SDS011;56430;48.154;16.458;2024-02-23T08:53:44;2.10;;;0.20;;
69310;SDS011;56430;48.154;16.458;2024-02-23T08:56:12;1.40;;;0.20;;
69310;SDS011;56430;48.154;16.458;2024-02-23T08:58:41;2.97;;;0.30;;
69310;SDS011;56430;48.154;16.458;2024-02-23T09:01:08;1.83;;;0.20;;
69310;SDS011;56430;48.154;16.458;2024-02-23T09:03:36;2.07;;;0.30;;
69310;SDS011;56430;48.154;16.458;2024-02-23T09:06:03;1.50;;;0.10;;
69310;SDS011;56430;48.154;16.458;2024-02-23T09:08:32;0.95;;;0.10;;
69310;SDS011;56430;48.154;16.458;2024-02-23T09:10:59;0.95;;;0.00;;
69310;SDS011;56430;48.154;16.458;2024-02-23T09:13:27;2.50;;;0.30;;
69310;SDS011;56430;48.154;16.458;2024-02-23T09:15:55;4.00;;;0.30;;
69310;SDS011;56430;48.154;16.458;2024-02-23T09:18:22;2.60;;;0.38;;
69310;SDS011;56430;48.154;16.458;2024-02-23T09:20:49;2.08;;;0.38;;
69310;SDS011;56430;48.154;16.458;2024-02-23T09:23:17;1.27;;;0.20;;
69310;SDS011;56430;48.154;16.458;2024-02-23T09:25:45;1.67;;;0.30;;
69310;SDS011;56430;48.154;16.458;2024-02-23T09:28:13;2.20;;;0.20;;
69310;SDS011;56430;48.154;16.458;2024-02-23T09:30:40;2.47;;;0.20;;
69310;SDS011;56430;48.154;16.458;2024-02-23T09:33:07;3.15;;;0.40;;
69310;SDS011;56430;48.154;16.458;2024-02-23T09:35:34;4.65;;;0.70;;
69310;SDS011;56430;48.154;16.458;2024-02-23T09:38:02;3.08;;;0.35;;
69310;SDS011;56430;48.154;16.458;2024-02-23T09:40:29;2.43;;;0.30;;
69310;SDS011;56430;48.154;16.458;2024-02-23T09:42:58;4.25;;;0.50;;
69310;SDS011;56430;48.154;16.458;2024-02-23T09:45:25;3.63;;;0.70;;
69310;SDS011;56430;48.154;16.458;2024-02-23T09:47:53;3.63;;;1.08;;
69310;SDS011;56430;48.154;16.458;2024-02-23T09:50:21;3.03;;;0.47;;
69310;SDS011;56430;48.154;16.458;2024-02-23T09:52:49;1.87;;;0.37;;
69310;SDS011;56430;48.154;16.458;2024-02-23T09:55:16;1.45;;;0.30;;
69310;SDS011;56430;48.154;16.458;2024-02-23T09:57:44;1.10;;;0.17;;
69310;SDS011;56430;48.154;16.458;2024-02-23T10:00:13;1.65;;;0.20;;
69310;SDS011;56430;48.154;16.458;2024-02-23T10:02:42;1.70;;;0.20;;
69310;SDS011;56430;48.154;16.458;2024-02-23T10:05:10;1.70;;;0.20;;
69310;SDS011;56430;48.154;16.458;2024-02-23T10:07:37;2.25;;;0.20;;
69310;SDS011;56430;48.154;16.458;2024-02-23T10:10:06;1.13;;;0.10;;
69310;SDS011;56430;48.154;16.458;2024-02-23T10:12:34;1.35;;;0.17;;
69310;SDS011;56430;48.154;16.458;2024-02-23T10:15:01;1.00;;;0.10;;
69310;SDS011;56430;48.154;16.458;2024-02-23T10:17:30;1.40;;;0.10;;
69310;SDS011;56430;48.154;16.458;2024-02-23T10:19:58;1.98;;;0.20;;
69310;SDS011;56430;48.154;16.458;2024-02-23T10:22:30;1.85;;;0.38;;
69310;SDS011;56430;48.154;16.458;2024-02-23T10:24:57;1.63;;;0.10;;
69310;SDS011;56430;48.154;16.458;2024-02-23T10:27:24;1.70;;;0.10;;
69310;SDS011;56430;48.154;16.458;2024-02-23T10:29:51;0.90;;;0.10;;
69310;SDS011;56430;48.154;16.458;2024-02-23T10:32:19;1.30;;;0.00;;
69310;SDS011;56430;48.154;16.458;2024-02-23T10:34:48;1.40;;;0.10;;
69310;SDS011;56430;48.154;16.458;2024-02-23T10:37:17;1.50;;;0.10;;
69310;SDS011;56430;48.154;16.458;2024-02-23T10:39:44;0.95;;;0.10;;
69310;SDS011;56430;48.154;16.458;2024-02-23T10:42:12;1.63;;;0.20;;
69310;SDS011;56430;48.154;16.458;2024-02-23T10:44:39;1.33;;;0.20;;
69310;SDS011;56430;48.154;16.458;2024-02-23T10:47:07;2.40;;;0.30;;
69310;SDS011;56430;48.154;16.458;2024-02-23T10:49:34;1.55;;;0.20;;
69310;SDS011;56430;48.154;16.458;2024-02-23T10:52:05;1.48;;;0.20;;
69310;SDS011;56430;48.154;16.458;2024-02-23T10:54:33;3.53;;;0.47;;
69310;SDS011;56430;48.154;16.458;2024-02-23T10:57:01;2.92;;;0.60;;
69310;SDS011;56430;48.154;16.458;2024-02-23T10:59:28;2.60;;;0.47;;
69310;SDS011;56430;48.154;16.458;2024-02-23T11:01:56;2.05;;;0.32;;
69310;SDS011;56430;48.154;16.458;2024-02-23T11:04:25;3.38;;;0.20;;
69310;SDS011;56430;48.154;16.458;2024-02-23T11:06:53;1.13;;;0.10;;
69310;SDS011;56430;48.154;16.458;2024-02-23T11:09:25;1.95;;;0.20;;
69310;SDS011;56430;48.154;16.458;2024-02-23T11:11:53;1.30;;;0.15;;
69310;SDS011;56430;48.154;16.458;2024-02-23T11:14:29;1.77;;;0.20;;
69310;SDS011;56430;48.154;16.458;2024-02-23T11:16:58;2.47;;;0.20;;
69310;SDS011;56430;48.154;16.458;2024-02-23T11:19:31;1.80;;;0.20;;
69310;SDS011;56430;48.154;16.458;2024-02-23T11:21:59;2.15;;;0.10;;
69310;SDS011;56430;48.154;16.458;2024-02-23T11:24:29;1.33;;;0.10;;
69310;SDS011;56430;48.154;16.458;2024-02-23T11:26:57;1.40;;;0.10;;
69310;SDS011;56430;48.154;16.458;2024-02-23T11:29:25;1.92;;;0.20;;
69310;SDS011;56430;48.154;16.458;2024-02-23T11:31:53;1.67;;;0.20;;
69310;SDS011;56430;48.154;16.458;2024-02-23T11:34:22;1.27;;;0.20;;
69310;SDS011;56430;48.154;16.458;2024-02-23T11:36:51;2.28;;;0.28;;
69310;SDS011;56430;48.154;16.458;2024-02-23T11:39:19;1.00;;;0.10;;
69310;SDS011;56430;48.154;16.458;2024-02-23T11:41:49;1.52;;;0.30;;
69310;SDS011;56430;48.154;16.458;2024-02-23T11:44:16;1.83;;;0.30;;
69310;SDS011;56430;48.154;16.458;2024-02-23T11:46:43;2.85;;;0.73;;
69310;SDS011;56430;48.154;16.458;2024-02-23T11:49:12;1.30;;;0.20;;
69310;SDS011;56430;48.154;16.458;2024-02-23T11:51:39;1.45;;;0.20;;
69310;SDS011;56430;48.154;16.458;2024-02-23T11:54:06;2.17;;;0.30;;
69310;SDS011;56430;48.154;16.458;2024-02-23T11:56:34;2.13;;;0.20;;
69310;SDS011;56430;48.154;16.458;2024-02-23T11:59:02;1.83;;;0.20;;
69310;SDS011;56430;48.154;16.458;2024-02-23T12:01:30;2.47;;;0.38;;
69310;SDS011;56430;48.154;16.458;2024-02-23T12:03:57;2.67;;;0.60;;
69310;SDS011;56430;48.154;16.458;2024-02-23T12:06:24;4.13;;;1.10;;
69310;SDS011;56430;48.154;16.458;2024-02-23T12:08:56;4.27;;;0.57;;
69310;SDS011;56430;48.154;16.458;2024-02-23T12:11:23;2.70;;;0.43;;
69310;SDS011;56430;48.154;16.458;2024-02-23T12:13:50;2.58;;;0.47;;
69310;SDS011;56430;48.154;16.458;2024-02-23T12:16:19;1.52;;;0.20;;
69310;SDS011;56430;48.154;16.458;2024-02-23T12:18:52;1.67;;;0.30;;
69310;SDS011;56430;48.154;16.458;2024-02-23T12:21:19;2.57;;;0.30;;
69310;SDS011;56430;48.154;16.458;2024-02-23T12:23:48;1.92;;;0.20;;
69310;SDS011;56430;48.154;16.458;2024-02-23T12:26:16;1.75;;;0.38;;
69310;SDS011;56430;48.154;16.458;2024-02-23T12:28:44;2.35;;;0.40;;
69310;SDS011;56430;48.154;16.458;2024-02-23T12:31:11;3.28;;;0.63;;
69310;SDS011;56430;48.154;16.458;2024-02-23T12:33:40;1.70;;;0.27;;
69310;SDS011;56430;48.154;16.458;2024-02-23T12:36:08;1.88;;;0.40;;
69310;SDS011;56430;48.154;16.458;2024-02-23T12:38:35;2.47;;;0.40;;
69310;SDS011;56430;48.154;16.458;2024-02-23T12:41:04;2.00;;;0.28;;
69310;SDS011;56430;48.154;16.458;2024-02-23T12:43:31;1.98;;;0.40;;
69310;SDS011;56430;48.154;16.458;2024-02-23T12:45:58;3.53;;;0.40;;
69310;SDS011;56430;48.154;16.458;2024-02-23T12:48:27;4.20;;;0.68;;
69310;SDS011;56430;48.154;16.458;2024-02-23T12:50:55;4.18;;;0.65;;
69310;SDS011;56430;48.154;16.458;2024-02-23T12:53:32;1.50;;;0.30;;
69310;SDS011;56430;48.154;16.458;2024-02-23T12:56:02;2.92;;;0.35;;
69310;SDS011;56430;48.154;16.458;2024-02-23T12:58:28;2.00;;;0.30;;
69310;SDS011;56430;48.154;16.458;2024-02-23T13:00:58;3.10;;;0.75;;
69310;SDS011;56430;48.154;16.458;2024-02-23T13:03:26;2.40;;;0.60;;
69310;SDS011;56430;48.154;16.458;2024-02-23T13:05:55;3.58;;;0.52;;
69310;SDS011;56430;48.154;16.458;2024-02-23T13:08:23;2.95;;;0.40;;
69310;SDS011;56430;48.154;16.458;2024-02-23T13:10:51;2.60;;;0.40;;
69310;SDS011;56430;48.154;16.458;2024-02-23T13:13:18;1.73;;;0.40;;
69310;SDS011;56430;48.154;16.458;2024-02-23T13:15:45;2.03;;;0.30;;
69310;SDS011;56430;48.154;16.458;2024-02-23T13:18:13;2.03;;;0.50;;
69310;SDS011;56430;48.154;16.458;2024-02-23T13:20:40;3.22;;;0.52;;
69310;SDS011;56430;48.154;16.458;2024-02-23T13:23:09;2.23;;;0.80;;
69310;SDS011;56430;48.154;16.458;2024-02-23T13:25:37;2.83;;;0.47;;
69310;SDS011;56430;48.154;16.458;2024-02-23T13:28:05;1.73;;;0.50;;
69310;SDS011;56430;48.154;16.458;2024-02-23T13:30:32;4.22;;;0.70;;
69310;SDS011;56430;48.154;16.458;2024-02-23T13:33:14;3.42;;;0.70;;
69310;SDS011;56430;48.154;16.458;2024-02-23T13:35:41;2.10;;;0.60;;
69310;SDS011;56430;48.154;16.458;2024-02-23T13:38:10;1.83;;;0.40;;
69310;SDS011;56430;48.154;16.458;2024-02-23T13:40:37;3.95;;;0.90;;
69310;SDS011;56430;48.154;16.458;2024-02-23T13:43:04;2.00;;;0.55;;
69310;SDS011;56430;48.154;16.458;2024-02-23T13:45:32;3.53;;;0.63;;
69310;SDS011;56430;48.154;16.458;2024-02-23T13:48:00;2.13;;;0.60;;
69310;SDS011;56430;48.154;16.458;2024-02-23T13:50:27;2.25;;;0.60;;
69310;SDS011;56430;48.154;16.458;2024-02-23T13:52:55;4.68;;;1.00;;
69310;SDS011;56430;48.154;16.458;2024-02-23T13:55:23;4.22;;;0.70;;
69310;SDS011;56430;48.154;16.458;2024-02-23T13:57:51;3.72;;;0.98;;
69310;SDS011;56430;48.154;16.458;2024-02-23T14:00:18;2.93;;;0.67;;
69310;SDS011;56430;48.154;16.458;2024-02-23T14:02:46;3.88;;;0.90;;
69310;SDS011;56430;48.154;16.458;2024-02-23T14:05:14;3.58;;;1.10;;
69310;SDS011;56430;48.154;16.458;2024-02-23T14:07:43;3.35;;;0.93;;
69310;SDS011;56430;48.154;16.458;2024-02-23T14:10:10;2.45;;;0.77;;
69310;SDS011;56430;48.154;16.458;2024-02-23T14:12:39;2.63;;;0.70;;
69310;SDS011;56430;48.154;16.458;2024-02-23T14:15:06;2.50;;;0.80;;
69310;SDS011;56430;48.154;16.458;2024-02-23T14:17:35;2.67;;;0.70;;
69310;SDS011;56430;48.154;16.458;2024-02-23T14:20:02;2.05;;;0.50;;
69310;SDS011;56430;48.154;16.458;2024-02-23T14:22:30;3.00;;;0.70;;
69310;SDS011;56430;48.154;16.458;2024-02-23T14:24:58;2.77;;;0.60;;
69310;SDS011;56430;48.154;16.458;2024-02-23T14:27:25;2.78;;;0.82;;
69310;SDS011;56430;48.154;16.458;2024-02-23T14:29:55;3.45;;;0.60;;
69310;SDS011;56430;48.154;16.458;2024-02-23T14:32:22;2.63;;;0.90;;
69310;SDS011;56430;48.154;16.458;2024-02-23T14:34:49;4.00;;;0.70;;
69310;SDS011;56430;48.154;16.458;2024-02-23T14:37:16;2.77;;;0.90;;
69310;SDS011;56430;48.154;16.458;2024-02-23T14:39:43;4.13;;;1.10;;
69310;SDS011;56430;48.154;16.458;2024-02-23T14:42:11;3.08;;;0.85;;